createdAt,value
2023-04-10T00:08:36.638Z,24.20
2023-04-10T00:12:08.709Z,22.73
2023-04-10T00:15:58.411Z,23.65
2023-04-10T00:19:35.505Z,27.00
2023-04-10T00:23:28.268Z,23.85
2023-04-10T00:27:21.180Z,23.53
2023-04-10T00:30:42.672Z,26.47
2023-04-10T00:34:17.684Z,26.25
2023-04-10T00:42:08.034Z,24.70
2023-04-10T00:46:08.708Z,26.20
2023-04-10T00:49:49.549Z,23.40
2023-04-10T01:02:43.259Z,22.80
2023-04-10T01:06:56.138Z,26.63
2023-04-10T01:10:40.766Z,26.17
2023-04-10T01:26:11.441Z,23.80
2023-04-10T01:29:53.699Z,22.23
2023-04-10T01:33:14.025Z,22.05
2023-04-10T01:36:30.356Z,21.48
2023-04-10T01:39:39.362Z,23.65
2023-04-10T01:43:01.063Z,23.67
2023-04-10T01:46:08.694Z,24.27
2023-04-10T01:49:23.233Z,22.33
2023-04-10T01:52:58.570Z,22.27
2023-04-10T01:56:20.954Z,22.83
2023-04-10T01:59:35.222Z,24.77
2023-04-10T02:02:59.323Z,25.27
2023-04-10T02:06:44.617Z,23.40
2023-04-10T02:10:44.590Z,22.92
2023-04-10T02:14:43.538Z,23.15
2023-04-10T02:18:02.888Z,26.43
2023-04-10T02:21:31.330Z,24.07
2023-04-10T02:24:49.138Z,25.30
2023-04-10T02:28:13.718Z,24.98
2023-04-10T02:31:25.736Z,25.98
2023-04-10T02:34:35.115Z,26.00
2023-04-10T02:37:52.214Z,24.23
2023-04-10T02:41:27.262Z,27.02
2023-04-10T02:44:45.428Z,25.60
2023-04-10T02:47:57.671Z,26.08
2023-04-10T02:55:23.878Z,25.30
2023-04-10T02:58:52.029Z,25.90
2023-04-10T03:06:56.217Z,23.90
2023-04-10T03:10:43.755Z,25.93
2023-04-10T03:14:13.159Z,29.63
2023-04-10T03:17:39.692Z,25.67
2023-04-10T03:21:09.105Z,23.30
2023-04-10T03:24:15.258Z,24.50
2023-04-10T03:27:34.117Z,26.37
2023-04-10T03:30:55.100Z,29.30
2023-04-10T03:34:28.657Z,27.45
2023-04-10T03:37:34.896Z,30.27
2023-04-10T03:40:41.980Z,25.70
2023-04-10T03:43:50.882Z,28.97
2023-04-10T03:46:55.668Z,28.57
2023-04-10T03:50:15.053Z,27.52
2023-04-10T03:53:37.779Z,23.67
2023-04-10T03:57:05.886Z,27.88
2023-04-10T04:00:53.661Z,25.97
2023-04-10T04:04:30.219Z,24.20
2023-04-10T04:08:10.889Z,27.67
2023-04-10T04:11:24.495Z,19.45
2023-04-10T04:14:33.397Z,23.45
2023-04-10T04:18:07.999Z,28.63
2023-04-10T04:21:35.393Z,29.47
2023-04-10T04:25:09.941Z,27.08
2023-04-10T04:28:19.526Z,26.52
2023-04-10T04:31:49.114Z,29.75
2023-04-10T04:39:27.476Z,25.03
2023-04-10T04:43:27.445Z,28.42
2023-04-10T05:15:17.071Z,25.97
2023-04-10T05:18:40.868Z,30.57
2023-04-10T05:22:32.604Z,19.42
2023-04-10T05:25:53.894Z,20.05
2023-04-10T05:29:52.841Z,26.83
2023-04-10T05:33:04.133Z,26.97
2023-04-10T05:40:12.296Z,30.38
2023-04-10T05:43:18.838Z,26.70
2023-04-10T05:46:25.213Z,25.98
2023-04-10T05:49:44.010Z,28.50
2023-04-10T05:53:04.057Z,27.87
2023-04-10T05:56:11.531Z,27.05
2023-04-10T05:59:15.341Z,29.48
2023-04-10T06:03:00.398Z,29.70
2023-04-10T06:06:09.686Z,28.70
2023-04-10T06:14:39.109Z,27.30
2023-04-10T06:31:42.912Z,25.77
2023-04-10T06:39:25.874Z,24.38
2023-04-10T06:43:10.726Z,21.92
2023-04-10T07:31:10.739Z,14.38
2023-04-10T07:35:04.165Z,16.90
2023-04-10T07:38:26.516Z,17.15
2023-04-10T07:42:08.882Z,17.35
2023-04-10T07:45:18.200Z,17.23
2023-04-10T07:48:28.915Z,17.75
2023-04-10T07:51:57.265Z,17.03
2023-04-10T07:55:06.177Z,18.00
2023-04-10T07:58:19.725Z,18.00
2023-04-10T08:01:50.115Z,16.88
2023-04-10T08:05:14.217Z,13.50
2023-04-10T08:08:29.897Z,15.63
2023-04-10T08:11:49.493Z,16.08
2023-04-10T08:15:08.076Z,15.23
2023-04-10T08:18:26.704Z,12.88
2023-04-10T08:25:34.064Z,16.77
2023-04-10T08:29:06.897Z,13.13
2023-04-10T08:32:41.629Z,13.57
2023-04-10T08:36:01.328Z,11.15
2023-04-10T08:39:23.164Z,11.18
2023-04-10T08:42:33.903Z,12.17
2023-04-10T08:46:01.365Z,13.02
2023-04-10T08:49:52.202Z,11.10
2023-04-10T08:53:14.034Z,10.15
2023-04-10T08:56:48.633Z,7.88
2023-04-10T09:07:49.157Z,10.25
2023-04-10T09:11:09.076Z,9.82
2023-04-10T09:19:55.043Z,10.10
2023-04-10T09:23:42.021Z,10.48
2023-04-10T09:27:53.095Z,10.98
2023-04-10T09:32:07.141Z,10.30
2023-04-10T09:39:58.388Z,9.97
2023-04-10T10:06:41.336Z,10.00
2023-04-10T10:23:27.338Z,9.32
2023-04-10T10:35:22.971Z,8.98
2023-04-10T10:42:45.083Z,9.13
2023-04-10T10:45:56.583Z,9.20
2023-04-10T10:49:01.364Z,9.57
2023-04-10T10:52:38.938Z,10.77
2023-04-10T10:55:42.916Z,13.13
2023-04-10T10:59:12.705Z,9.93
2023-04-10T11:02:28.305Z,9.43
2023-04-10T11:06:15.367Z,8.48
2023-04-10T11:10:11.016Z,8.43
2023-04-10T11:13:28.276Z,9.43
2023-04-10T11:16:51.733Z,9.82
2023-04-10T11:20:25.960Z,9.23
2023-04-10T11:23:37.064Z,8.85
2023-04-10T11:26:48.739Z,9.60
2023-04-10T11:30:38.583Z,10.07
2023-04-10T11:34:05.898Z,7.05
2023-04-10T11:38:20.405Z,8.73
2023-04-10T11:41:12.838Z,10.10
2023-04-10T11:44:31.759Z,8.85
2023-04-10T11:47:48.787Z,8.30
2023-04-10T11:50:57.171Z,8.13
2023-04-10T11:54:56.099Z,9.30
2023-04-10T11:58:32.642Z,10.60
2023-04-10T12:01:44.334Z,8.95
2023-04-10T12:05:10.939Z,8.93
2023-04-10T12:08:17.074Z,8.02
2023-04-10T12:11:37.234Z,8.32
2023-04-10T12:14:49.003Z,10.07
2023-04-10T12:17:55.316Z,11.75
2023-04-10T12:21:04.748Z,8.90
2023-04-10T12:24:52.983Z,9.45
2023-04-10T12:28:05.379Z,9.85
2023-04-10T12:31:43.565Z,10.80
2023-04-10T12:35:04.936Z,9.75
2023-04-10T12:38:08.928Z,10.53
2023-04-10T12:41:12.827Z,9.15
2023-04-10T12:44:17.126Z,9.57
2023-04-10T12:47:26.916Z,8.82
2023-04-10T12:50:32.081Z,8.18
2023-04-10T12:53:56.741Z,8.53
2023-04-10T12:57:09.548Z,10.60
2023-04-10T13:00:15.409Z,9.73
2023-04-10T13:03:19.891Z,8.18
2023-04-10T13:06:22.972Z,8.18
2023-04-10T13:09:26.442Z,8.50
2023-04-10T13:12:30.437Z,7.07
2023-04-10T13:15:35.673Z,7.97
2023-04-10T13:18:44.976Z,7.38
2023-04-10T13:21:56.136Z,7.93
2023-04-10T13:25:06.472Z,8.67
2023-04-10T13:28:12.727Z,7.25
2023-04-10T13:31:40.208Z,6.50
2023-04-10T13:34:53.164Z,7.88
2023-04-10T13:37:59.913Z,7.18
2023-04-10T13:41:04.222Z,6.67
2023-04-10T13:44:10.883Z,6.53
2023-04-10T13:47:40.611Z,7.53
2023-04-10T13:50:44.048Z,7.82
2023-04-10T13:53:49.277Z,7.78
2023-04-10T14:00:47.744Z,7.90
2023-04-10T14:04:01.341Z,5.95
2023-04-10T14:07:12.292Z,5.95
2023-04-10T14:10:36.746Z,6.18
2023-04-10T14:13:41.149Z,5.83
2023-04-10T14:17:09.296Z,8.23
2023-04-10T14:21:08.844Z,7.00
2023-04-10T14:38:42.295Z,11.00
2023-04-10T15:21:49.358Z,9.00
2023-04-10T15:25:23.784Z,7.47
2023-04-10T15:28:50.965Z,6.75
2023-04-10T15:32:38.364Z,7.80
2023-04-10T17:10:43.016Z,8.40
2023-04-10T17:25:53.303Z,10.13
2023-04-10T17:29:35.590Z,10.27
2023-04-10T17:33:22.759Z,10.68
2023-04-10T17:45:24.578Z,11.43
2023-04-10T17:48:52.301Z,12.68
2023-04-10T17:52:06.030Z,10.75
2023-04-10T17:55:42.008Z,11.68
2023-04-10T18:02:32.217Z,8.57
2023-04-10T18:05:49.264Z,8.90
2023-04-10T18:09:14.324Z,9.93
2023-04-10T18:12:19.140Z,11.55
2023-04-10T18:15:37.311Z,11.98
2023-04-10T18:18:47.445Z,11.03
2023-04-10T18:22:19.470Z,9.82
2023-04-10T18:25:30.071Z,12.35
2023-04-10T18:28:38.773Z,9.85
2023-04-10T18:32:13.274Z,9.50
2023-04-10T18:35:20.193Z,10.27
2023-04-10T18:38:53.570Z,8.85
2023-04-10T18:42:08.693Z,12.25
2023-04-10T18:45:20.323Z,10.60
2023-04-10T18:48:27.331Z,10.82
2023-04-10T18:51:39.050Z,10.40
2023-04-10T18:54:45.976Z,10.48
2023-04-10T18:57:56.966Z,9.45
2023-04-10T19:01:00.577Z,10.45
2023-04-10T19:04:10.855Z,9.05
2023-04-10T19:07:36.225Z,9.57
2023-04-10T19:10:43.142Z,8.73
2023-04-10T19:13:50.412Z,9.27
2023-04-10T19:17:08.996Z,9.93
2023-04-10T19:20:16.973Z,9.40
2023-04-10T19:24:14.349Z,12.77
2023-04-10T19:27:51.705Z,11.27
2023-04-10T19:31:01.032Z,10.60
2023-04-10T19:34:10.030Z,11.43
2023-04-10T19:37:13.294Z,10.63
2023-04-10T19:40:19.899Z,9.87
2023-04-10T19:43:26.645Z,10.95
2023-04-10T19:46:29.883Z,9.45
2023-04-10T19:49:33.690Z,9.35
2023-04-10T19:52:35.945Z,10.65
2023-04-10T19:55:40.809Z,10.17
2023-04-10T19:58:49.557Z,10.38
2023-04-10T20:01:55.740Z,12.32
2023-04-10T20:05:01.092Z,11.50
2023-04-10T20:08:06.886Z,10.05
2023-04-10T20:11:15.690Z,10.50
2023-04-10T20:14:25.819Z,12.07
2023-04-10T20:17:40.599Z,13.32
2023-04-10T20:20:47.212Z,14.10
2023-04-10T20:24:00.065Z,12.98
2023-04-10T20:27:18.335Z,14.10
2023-04-10T20:30:27.657Z,12.15
2023-04-10T20:33:34.216Z,14.90
2023-04-10T20:36:40.442Z,11.20
2023-04-10T20:39:47.812Z,14.23
2023-04-10T20:43:05.447Z,15.33
2023-04-10T20:46:33.695Z,15.48
2023-04-10T20:49:40.225Z,14.00
2023-04-10T20:52:57.762Z,15.98
2023-04-10T20:56:19.969Z,15.52
2023-04-10T20:59:37.872Z,16.40
2023-04-10T21:02:52.282Z,13.88
2023-04-10T21:06:00.685Z,15.07
2023-04-10T21:09:23.197Z,14.88
2023-04-10T21:12:34.154Z,14.98
2023-04-10T21:15:54.935Z,15.43
2023-04-10T21:19:38.567Z,15.23
2023-04-10T21:23:06.275Z,14.88
2023-04-10T21:26:28.308Z,15.45
2023-04-10T21:29:39.782Z,15.38
2023-04-10T21:32:52.583Z,16.50
2023-04-10T21:36:14.058Z,15.48
2023-04-10T21:39:25.399Z,19.75
2023-04-10T21:42:33.736Z,17.42
2023-04-10T21:45:50.138Z,19.35
2023-04-10T21:49:04.642Z,17.60
2023-04-10T21:52:27.127Z,16.08
2023-04-10T21:55:36.172Z,17.00
2023-04-10T21:59:02.062Z,18.35
2023-04-10T22:02:13.905Z,18.33
2023-04-10T22:05:18.004Z,17.00
2023-04-10T22:08:22.949Z,17.08
2023-04-10T22:11:39.529Z,18.23
2023-04-10T22:15:06.160Z,15.73
2023-04-10T22:18:20.589Z,16.45
2023-04-10T22:21:35.494Z,19.47
2023-04-10T22:24:50.160Z,16.75
2023-04-10T22:28:15.540Z,19.00
2023-04-10T22:31:27.930Z,16.55
2023-04-10T22:34:38.501Z,18.38
2023-04-10T22:37:57.128Z,17.37
2023-04-10T22:41:13.597Z,17.17
2023-04-10T22:44:29.852Z,21.15
2023-04-10T22:47:47.970Z,22.05
2023-04-10T22:50:57.814Z,20.80
2023-04-10T22:54:06.617Z,22.00
2023-04-10T22:57:13.479Z,20.63
2023-04-10T23:00:30.298Z,19.95
2023-04-10T23:03:39.793Z,21.27
2023-04-10T23:06:48.701Z,23.65
2023-04-10T23:09:57.298Z,19.93
2023-04-10T23:13:06.982Z,22.05
2023-04-10T23:16:19.134Z,20.67
2023-04-10T23:19:26.171Z,23.50
2023-04-10T23:22:32.526Z,22.85
2023-04-10T23:25:35.598Z,22.20
2023-04-10T23:29:03.445Z,20.48
2023-04-10T23:32:08.757Z,22.30
2023-04-10T23:35:11.740Z,22.42
2023-04-10T23:38:15.216Z,24.05
2023-04-10T23:41:27.807Z,21.77
2023-04-10T23:44:35.593Z,21.17
2023-04-10T23:47:44.030Z,21.63
2023-04-10T23:50:47.682Z,20.70
2023-04-10T23:53:53.414Z,20.17
2023-04-10T23:56:56.684Z,24.23
